createdAt,value
2023-11-23T00:02:57.948Z,78.23
2023-11-23T00:06:00.627Z,79.26
2023-11-23T00:09:04.004Z,78.89
2023-11-23T00:12:07.230Z,79.40
2023-11-23T00:15:11.016Z,79.03
2023-11-23T00:19:02.053Z,79.13
2023-11-23T00:22:05.086Z,79.55
2023-11-23T00:25:13.599Z,79.63
2023-11-23T00:28:17.364Z,79.13
2023-11-23T00:31:19.937Z,79.43
2023-11-23T00:34:23.856Z,79.23
2023-11-23T00:37:30.192Z,78.54
2023-11-23T00:40:32.856Z,78.78
2023-11-23T00:43:38.178Z,79.13
2023-11-23T00:46:40.779Z,79.25
2023-11-23T00:49:43.123Z,78.89
2023-11-23T00:52:45.554Z,78.68
2023-11-23T00:55:48.358Z,78.85
2023-11-23T00:58:53.383Z,79.00
2023-11-23T01:01:56.234Z,78.38
2023-11-23T01:04:59.220Z,78.33
2023-11-23T01:08:02.092Z,78.26
2023-11-23T01:11:04.912Z,78.06
2023-11-23T01:14:09.655Z,78.05
2023-11-23T01:17:12.202Z,78.00
2023-11-23T01:20:15.473Z,77.94
2023-11-23T01:23:18.573Z,78.19
2023-11-23T01:26:21.451Z,78.24
2023-11-23T01:29:25.352Z,78.25
2023-11-23T01:32:31.383Z,78.16
2023-11-23T01:35:34.157Z,78.28
2023-11-23T01:38:37.645Z,78.10
2023-11-23T01:41:40.496Z,76.47
2023-11-23T01:44:43.450Z,76.42
2023-11-23T01:47:48.227Z,76.70
2023-11-23T01:50:51.912Z,77.62
2023-11-23T01:53:55.688Z,78.08
2023-11-23T01:57:00.322Z,78.94
2023-11-23T02:00:04.168Z,79.50
2023-11-23T02:03:09.979Z,79.69
2023-11-23T02:06:14.361Z,78.92
2023-11-23T02:09:18.579Z,79.20
2023-11-23T02:12:23.446Z,78.63
2023-11-23T02:15:28.398Z,78.00
2023-11-23T02:18:42.707Z,76.39
2023-11-23T02:21:48.018Z,76.04
2023-11-23T02:24:52.003Z,75.60
2023-11-23T02:27:56.000Z,75.47
2023-11-23T02:30:59.151Z,75.90
2023-11-23T02:34:05.233Z,74.32
2023-11-23T02:37:10.900Z,74.07
2023-11-23T02:40:13.534Z,73.61
2023-11-23T02:43:17.416Z,74.04
2023-11-23T02:46:23.203Z,73.60
2023-11-23T02:49:26.389Z,73.92
2023-11-23T02:52:29.417Z,74.05
2023-11-23T02:55:32.492Z,74.19
2023-11-23T02:58:35.408Z,74.05
2023-11-23T03:01:38.128Z,74.19
2023-11-23T03:04:40.622Z,74.07
2023-11-23T03:07:43.351Z,73.60
2023-11-23T03:10:46.019Z,73.87
2023-11-23T03:13:49.610Z,73.64
2023-11-23T03:16:54.025Z,73.87
2023-11-23T03:19:56.780Z,73.46
2023-11-23T03:23:00.388Z,73.54
2023-11-23T03:26:06.971Z,73.84
2023-11-23T03:29:09.882Z,74.42
2023-11-23T03:32:12.003Z,73.63
2023-11-23T03:35:14.604Z,74.44
2023-11-23T03:38:17.632Z,74.49
2023-11-23T03:41:19.891Z,74.29
2023-11-23T03:44:22.817Z,74.26
2023-11-23T03:47:25.609Z,73.98
2023-11-23T03:50:27.993Z,74.12
2023-11-23T03:53:30.715Z,74.28
2023-11-23T03:56:33.932Z,74.48
2023-11-23T03:59:36.492Z,74.41
2023-11-23T04:02:39.953Z,74.74
2023-11-23T04:05:42.910Z,75.19
2023-11-23T04:08:49.458Z,75.38
2023-11-23T04:12:12.892Z,76.23
2023-11-23T04:15:16.167Z,75.83
2023-11-23T04:18:23.645Z,76.18
2023-11-23T04:21:37.435Z,76.08
2023-11-23T04:24:45.326Z,75.68
2023-11-23T04:28:00.567Z,76.20
2023-11-23T04:31:06.814Z,76.21
2023-11-23T04:34:09.974Z,76.24
2023-11-23T04:37:16.543Z,75.99
2023-11-23T04:40:25.151Z,75.80
2023-11-23T04:43:34.985Z,75.77
2023-11-23T04:46:39.640Z,75.44
2023-11-23T04:49:43.750Z,75.81
2023-11-23T04:52:56.794Z,75.19
2023-11-23T04:56:08.271Z,74.96
2023-11-23T04:59:11.950Z,75.10
2023-11-23T05:02:18.094Z,74.82
2023-11-23T05:05:21.525Z,74.98
2023-11-23T05:08:24.096Z,74.74
2023-11-23T05:11:26.456Z,74.52
2023-11-23T05:14:29.370Z,74.25
2023-11-23T05:17:34.449Z,74.04
2023-11-23T05:20:36.634Z,73.55
2023-11-23T05:23:38.924Z,74.17
2023-11-23T05:27:08.534Z,73.67
2023-11-23T05:30:18.161Z,74.19
2023-11-23T05:33:26.093Z,73.91
2023-11-23T05:36:34.543Z,74.21
2023-11-23T05:39:38.861Z,74.39
2023-11-23T05:42:54.311Z,73.57
2023-11-23T05:46:07.554Z,73.66
2023-11-23T05:49:16.277Z,73.62
2023-11-23T05:52:19.018Z,75.01
2023-11-23T05:55:22.299Z,76.00
2023-11-23T05:58:31.128Z,78.05
2023-11-23T06:01:36.554Z,78.43
2023-11-23T06:04:49.230Z,78.96
2023-11-23T06:07:52.939Z,79.29
2023-11-23T06:10:55.813Z,79.41
2023-11-23T06:13:59.601Z,79.40
2023-11-23T06:17:17.460Z,79.32
2023-11-23T06:20:24.681Z,79.62
2023-11-23T06:23:27.427Z,79.71
2023-11-23T06:26:43.579Z,79.28
2023-11-23T06:29:50.216Z,79.50
2023-11-23T06:32:55.569Z,79.58
2023-11-23T06:36:02.174Z,79.96
2023-11-23T06:39:17.460Z,80.00
2023-11-23T06:42:49.052Z,80.08
2023-11-23T06:45:55.742Z,80.09
2023-11-23T06:49:02.662Z,79.83
2023-11-23T06:52:06.360Z,80.26
2023-11-23T06:55:24.572Z,80.18
2023-11-23T06:58:34.427Z,80.11
2023-11-23T07:02:32.496Z,79.54
2023-11-23T07:06:17.728Z,78.88
2023-11-23T07:09:26.408Z,79.01
2023-11-23T07:13:01.579Z,78.88
2023-11-23T07:20:46.807Z,77.07
2023-11-23T07:23:50.932Z,77.08
2023-11-23T07:26:57.475Z,77.46
2023-11-23T07:30:08.427Z,77.21
2023-11-23T07:33:21.194Z,77.48
2023-11-23T07:36:29.658Z,77.28
2023-11-23T07:39:43.487Z,77.40
2023-11-23T07:42:47.918Z,76.77
2023-11-23T07:49:38.096Z,77.99
2023-11-23T07:53:07.153Z,77.07
2023-11-23T07:56:12.086Z,77.55
2023-11-23T07:59:22.832Z,77.45
2023-11-23T08:02:33.982Z,77.20
2023-11-23T08:09:20.633Z,77.03
2023-11-23T08:20:18.021Z,78.11
2023-11-23T08:23:21.625Z,78.23
2023-11-23T08:26:39.239Z,77.20
2023-11-23T08:29:48.336Z,77.37
2023-11-23T08:33:17.441Z,77.36
2023-11-23T08:36:42.272Z,76.90
2023-11-23T08:39:55.679Z,76.97
2023-11-23T08:43:17.199Z,76.29
2023-11-23T08:46:24.198Z,76.69
2023-11-23T08:49:36.236Z,76.95
2023-11-23T08:53:59.791Z,76.79
2023-11-23T08:57:16.967Z,76.48
2023-11-23T09:00:46.985Z,76.27
2023-11-23T09:11:51.055Z,75.52
2023-11-23T09:15:23.284Z,75.44
2023-11-23T09:18:35.728Z,74.57
2023-11-23T09:21:41.169Z,73.73
2023-11-23T09:31:51.179Z,72.99
2023-11-23T09:39:11.123Z,72.63
2023-11-23T09:42:22.363Z,72.81
2023-11-23T09:46:59.037Z,73.67
2023-11-23T09:58:44.805Z,74.28
2023-11-23T10:02:37.571Z,74.69
2023-11-23T10:23:37.912Z,76.69
2023-11-23T10:27:04.434Z,76.94
2023-11-23T10:30:54.001Z,77.27
2023-11-23T10:37:57.696Z,77.12
2023-11-23T10:41:26.271Z,76.81
2023-11-23T10:45:36.460Z,76.78
2023-11-23T10:49:09.831Z,76.89
2023-11-23T10:52:27.762Z,76.78
2023-11-23T10:56:14.901Z,76.52
2023-11-23T11:05:57.302Z,76.25
2023-11-23T11:13:40.939Z,75.78
2023-11-23T11:17:04.643Z,75.77
2023-11-23T11:20:43.874Z,74.96
2023-11-23T11:24:27.543Z,74.55
2023-11-23T11:27:40.636Z,74.21
2023-11-23T11:30:45.506Z,73.75
2023-11-23T11:33:56.050Z,73.68
2023-11-23T11:37:20.976Z,73.20
2023-11-23T11:40:38.227Z,73.50
2023-11-23T11:43:48.916Z,73.06
2023-11-23T11:59:00.562Z,72.51
2023-11-23T12:02:09.534Z,71.95
2023-11-23T12:05:20.005Z,72.03
2023-11-23T12:08:34.897Z,72.32
2023-11-23T12:12:17.684Z,71.51
2023-11-23T12:29:13.399Z,71.07
2023-11-23T12:32:19.629Z,71.29
2023-11-23T12:35:22.207Z,72.01
2023-11-23T12:38:25.801Z,70.98
2023-11-23T12:41:42.768Z,70.70
2023-11-23T12:45:00.699Z,71.37
2023-11-23T12:48:06.688Z,70.93
2023-11-23T12:51:12.084Z,70.80
2023-11-23T12:54:22.087Z,70.82
2023-11-23T12:57:39.280Z,70.87
2023-11-23T13:00:44.578Z,70.84
2023-11-23T13:03:58.632Z,70.82
2023-11-23T13:07:01.939Z,71.19
2023-11-23T13:10:07.168Z,71.03
2023-11-23T13:13:10.189Z,70.18
2023-11-23T13:16:20.561Z,70.18
2023-11-23T13:19:37.068Z,70.01
2023-11-23T13:22:47.813Z,69.06
2023-11-23T13:25:52.441Z,68.63
2023-11-23T13:28:58.724Z,68.19
2023-11-23T13:32:04.089Z,67.58
2023-11-23T13:35:08.788Z,67.47
2023-11-23T13:38:12.202Z,68.38
2023-11-23T13:41:16.491Z,70.70
2023-11-23T13:44:20.057Z,72.58
2023-11-23T13:47:22.301Z,74.33
2023-11-23T13:50:26.458Z,74.64
2023-11-23T13:53:32.349Z,75.73
2023-11-23T13:56:34.996Z,76.51
2023-11-23T13:59:38.647Z,76.72
2023-11-23T14:02:41.422Z,77.70
2023-11-23T14:05:47.408Z,77.85
2023-11-23T14:08:50.454Z,78.44
2023-11-23T14:11:55.943Z,78.14
2023-11-23T14:15:06.085Z,78.14
2023-11-23T14:18:12.056Z,78.79
2023-11-23T14:21:15.385Z,77.88
2023-11-23T14:24:21.038Z,77.75
2023-11-23T14:27:27.979Z,78.03
2023-11-23T14:30:33.128Z,77.97
2023-11-23T14:36:37.854Z,79.27
2023-11-23T14:39:41.276Z,78.59
2023-11-23T14:42:55.910Z,77.78
2023-11-23T14:46:09.633Z,78.21
2023-11-23T14:49:12.736Z,77.21
2023-11-23T14:52:16.721Z,78.08
2023-11-23T14:55:19.319Z,77.06
2023-11-23T14:58:22.588Z,77.48
2023-11-23T15:01:28.057Z,77.50
2023-11-23T15:04:32.787Z,77.37
2023-11-23T15:07:36.314Z,77.03
2023-11-23T15:10:39.646Z,77.90
2023-11-23T15:13:42.614Z,77.98
2023-11-23T15:16:47.520Z,78.45
2023-11-23T15:19:49.836Z,78.35
2023-11-23T15:22:52.267Z,78.80
2023-11-23T15:25:55.834Z,79.05
2023-11-23T15:29:01.011Z,79.23
2023-11-23T15:32:04.524Z,79.27
2023-11-23T15:35:17.894Z,78.85
2023-11-23T15:38:23.837Z,79.48
2023-11-23T15:41:26.310Z,79.23
2023-11-23T15:44:30.004Z,79.38
2023-11-23T15:47:32.123Z,79.44
2023-11-23T15:50:34.730Z,80.07
2023-11-23T15:53:38.195Z,79.33
2023-11-23T15:56:41.132Z,80.00
2023-11-23T15:59:43.226Z,80.22
2023-11-23T16:02:46.968Z,79.47
2023-11-23T16:05:49.925Z,80.44
2023-11-23T16:08:57.032Z,80.44
2023-11-23T16:12:04.499Z,80.56
2023-11-23T16:15:08.334Z,80.40
2023-11-23T16:18:11.822Z,80.38
2023-11-23T16:21:18.335Z,80.42
2023-11-23T16:24:22.003Z,80.40
2023-11-23T16:27:25.872Z,80.91
2023-11-23T16:30:28.729Z,80.91
2023-11-23T16:33:34.151Z,80.35
2023-11-23T16:36:39.998Z,80.43
2023-11-23T16:39:43.317Z,80.93
2023-11-23T16:42:48.207Z,80.94
2023-11-23T16:45:51.769Z,80.45
2023-11-23T16:48:56.335Z,80.64
2023-11-23T16:51:59.625Z,80.07
2023-11-23T16:55:04.239Z,80.46
2023-11-23T16:58:07.246Z,79.85
2023-11-23T17:01:09.751Z,81.05
2023-11-23T17:04:13.269Z,80.67
2023-11-23T17:07:16.054Z,80.86
2023-11-23T17:10:21.911Z,81.32
2023-11-23T17:13:25.423Z,80.57
2023-11-23T17:16:30.559Z,80.98
2023-11-23T17:19:39.644Z,81.17
2023-11-23T17:22:44.845Z,81.10
2023-11-23T17:25:49.677Z,81.23
2023-11-23T17:28:55.757Z,81.00
2023-11-23T17:31:59.333Z,81.24
2023-11-23T17:35:03.940Z,81.50
2023-11-23T17:38:09.064Z,81.74
2023-11-23T17:41:15.101Z,81.74
2023-11-23T17:44:19.262Z,82.11
2023-11-23T17:47:27.243Z,81.90
2023-11-23T17:50:31.114Z,81.77
2023-11-23T17:53:38.658Z,82.43
2023-11-23T17:56:42.645Z,82.28
2023-11-23T17:59:49.862Z,82.68
2023-11-23T18:02:54.603Z,82.51
2023-11-23T18:05:59.578Z,82.53
2023-11-23T18:09:06.846Z,82.65
2023-11-23T18:12:11.272Z,83.01
2023-11-23T18:15:15.818Z,82.63
2023-11-23T18:18:24.066Z,82.69
2023-11-23T18:21:29.101Z,82.76
2023-11-23T18:24:32.712Z,83.27
2023-11-23T18:27:35.813Z,82.92
2023-11-23T18:30:39.772Z,83.06
2023-11-23T18:33:45.067Z,83.50
2023-11-23T18:36:48.400Z,83.51
2023-11-23T18:39:52.024Z,83.28
2023-11-23T18:42:55.281Z,83.25
2023-11-23T18:45:58.811Z,83.16
2023-11-23T18:49:04.042Z,83.45
2023-11-23T18:52:10.200Z,83.56
2023-11-23T18:55:20.031Z,83.41
2023-11-23T18:58:22.682Z,83.21
2023-11-23T19:01:26.052Z,83.65
2023-11-23T19:04:28.963Z,83.81
2023-11-23T19:07:38.043Z,83.97
2023-11-23T19:10:43.252Z,83.89
2023-11-23T19:13:47.661Z,83.75
2023-11-23T19:16:51.060Z,84.05
2023-11-23T19:19:57.020Z,84.40
2023-11-23T19:23:03.677Z,84.22
2023-11-23T19:26:08.142Z,84.48
2023-11-23T19:29:12.545Z,84.37
2023-11-23T19:32:27.426Z,84.64
2023-11-23T19:35:31.569Z,84.80
2023-11-23T19:38:35.998Z,84.23
2023-11-23T19:41:43.158Z,84.10
2023-11-23T19:44:51.651Z,83.76
2023-11-23T19:47:56.056Z,83.85
2023-11-23T19:50:59.465Z,83.66
2023-11-23T19:54:07.825Z,83.69
2023-11-23T19:57:11.683Z,83.33
2023-11-23T20:00:16.514Z,83.22
2023-11-23T20:03:21.156Z,82.77
2023-11-23T20:06:27.519Z,82.44
2023-11-23T20:09:32.394Z,82.81
2023-11-23T20:12:35.947Z,82.93
2023-11-23T20:15:38.786Z,82.68
2023-11-23T20:18:45.139Z,82.78
2023-11-23T20:21:48.910Z,82.49
2023-11-23T20:24:52.535Z,82.22
2023-11-23T20:27:56.264Z,82.64
2023-11-23T20:31:01.962Z,82.96
2023-11-23T20:34:05.839Z,83.02
2023-11-23T20:37:10.261Z,83.36
2023-11-23T20:40:13.189Z,83.83
2023-11-23T20:43:16.638Z,83.88
2023-11-23T20:46:19.382Z,83.72
2023-11-23T20:49:22.957Z,83.92
2023-11-23T20:52:27.937Z,84.10
2023-11-23T20:55:32.621Z,83.56
2023-11-23T20:58:36.079Z,83.57
2023-11-23T21:01:39.931Z,83.60
2023-11-23T21:04:46.098Z,83.83
2023-11-23T21:07:49.588Z,83.99
2023-11-23T21:10:53.988Z,83.85
2023-11-23T21:13:57.728Z,83.93
2023-11-23T21:17:01.844Z,83.96
2023-11-23T21:20:11.202Z,83.61
2023-11-23T21:23:14.492Z,83.71
2023-11-23T21:26:17.264Z,83.56
2023-11-23T21:29:20.144Z,83.20
2023-11-23T21:32:25.448Z,83.47
2023-11-23T21:35:33.665Z,83.13
2023-11-23T21:38:38.586Z,83.32
2023-11-23T21:41:41.267Z,83.50
2023-11-23T21:44:44.114Z,83.29
2023-11-23T21:47:48.657Z,83.23
2023-11-23T21:50:54.651Z,82.76
2023-11-23T21:53:58.194Z,82.16
2023-11-23T21:57:00.790Z,82.49
2023-11-23T22:00:04.379Z,82.16
2023-11-23T22:03:06.572Z,82.60
2023-11-23T22:06:10.377Z,82.61
2023-11-23T22:09:12.581Z,82.24
2023-11-23T22:12:15.082Z,82.12
2023-11-23T22:15:17.946Z,81.63
2023-11-23T22:18:21.131Z,81.83
2023-11-23T22:21:25.845Z,81.49
2023-11-23T22:24:28.804Z,81.76
2023-11-23T22:27:32.731Z,82.05
2023-11-23T22:30:39.090Z,82.56
2023-11-23T22:33:43.116Z,82.67
2023-11-23T22:36:46.694Z,82.76
2023-11-23T22:39:49.489Z,82.66
2023-11-23T22:42:52.411Z,83.19
2023-11-23T22:45:54.969Z,83.14
2023-11-23T22:48:57.220Z,83.04
2023-11-23T22:52:01.857Z,83.72
2023-11-23T22:55:08.491Z,83.72
2023-11-23T22:58:10.699Z,84.13
2023-11-23T23:01:13.227Z,83.77
2023-11-23T23:04:15.571Z,83.77
2023-11-23T23:07:21.868Z,83.91
2023-11-23T23:10:29.081Z,84.01
2023-11-23T23:13:33.914Z,84.97
2023-11-23T23:16:36.819Z,84.77
2023-11-23T23:19:39.000Z,84.85
2023-11-23T23:22:41.547Z,85.00
2023-11-23T23:25:45.837Z,85.00
2023-11-23T23:28:48.768Z,85.25
2023-11-23T23:31:51.758Z,85.49
2023-11-23T23:34:54.793Z,85.76
2023-11-23T23:37:57.392Z,85.36
2023-11-23T23:41:00.009Z,85.91
2023-11-23T23:44:05.640Z,86.04
2023-11-23T23:47:09.270Z,86.11
2023-11-23T23:50:13.059Z,86.52
2023-11-23T23:53:15.688Z,86.64
2023-11-23T23:56:18.495Z,86.84
2023-11-23T23:59:20.856Z,87.21
